createdAt,value
2022-11-20T00:01:44.238Z,84.09
2022-11-20T00:05:12.173Z,84.13
2022-11-20T00:08:39.422Z,84.14
2022-11-20T00:12:06.760Z,84.24
2022-11-20T00:15:34.314Z,84.17
2022-11-20T00:19:01.105Z,84.04
2022-11-20T00:22:27.822Z,83.98
2022-11-20T00:25:54.802Z,83.96
2022-11-20T00:29:21.681Z,84.02
2022-11-20T00:32:48.737Z,83.85
2022-11-20T00:36:17.961Z,84.09
2022-11-20T00:39:44.624Z,83.93
2022-11-20T00:43:11.297Z,84.00
2022-11-20T00:46:37.991Z,84.13
2022-11-20T00:50:05.002Z,84.10
2022-11-20T00:53:31.914Z,84.25
2022-11-20T00:56:58.878Z,84.17
2022-11-20T01:00:25.899Z,84.07
2022-11-20T01:03:54.507Z,83.97
2022-11-20T01:07:21.419Z,84.07
2022-11-20T01:10:48.305Z,84.09
2022-11-20T01:14:17.855Z,84.06
2022-11-20T01:17:43.038Z,84.13
2022-11-20T01:21:11.883Z,84.13
2022-11-20T01:24:38.476Z,84.37
2022-11-20T01:28:05.126Z,84.55
2022-11-20T01:31:34.834Z,84.54
2022-11-20T01:35:01.553Z,84.79
2022-11-20T01:38:28.140Z,84.94
2022-11-20T01:42:13.838Z,85.05
2022-11-20T01:46:16.909Z,85.25
2022-11-20T01:49:48.682Z,85.46
2022-11-20T01:53:20.352Z,85.61
2022-11-20T01:56:50.339Z,85.77
2022-11-20T02:00:20.790Z,85.81
2022-11-20T02:03:48.585Z,86.01
2022-11-20T02:07:15.759Z,86.06
2022-11-20T02:10:42.452Z,86.13
2022-11-20T02:14:09.853Z,86.19
2022-11-20T02:17:36.737Z,86.34
2022-11-20T02:21:08.636Z,86.45
2022-11-20T02:24:35.620Z,86.73
2022-11-20T02:28:02.329Z,86.81
2022-11-20T02:31:29.136Z,86.71
2022-11-20T02:34:55.915Z,86.68
2022-11-20T02:38:22.951Z,87.04
2022-11-20T02:41:49.901Z,87.01
2022-11-20T02:45:16.617Z,86.93
2022-11-20T02:48:43.460Z,87.07
2022-11-20T02:52:10.073Z,87.08
2022-11-20T02:55:37.262Z,87.19
2022-11-20T02:59:04.180Z,87.13
2022-11-20T03:02:33.405Z,86.97
2022-11-20T03:06:02.033Z,87.05
2022-11-20T03:09:28.696Z,86.92
2022-11-20T03:12:58.184Z,86.73
2022-11-20T03:16:24.777Z,86.66
2022-11-20T03:19:51.691Z,86.70
2022-11-20T03:23:18.450Z,86.70
2022-11-20T03:26:45.351Z,86.67
2022-11-20T03:30:13.691Z,86.67
2022-11-20T03:33:40.933Z,86.52
2022-11-20T03:37:08.091Z,86.66
2022-11-20T03:40:35.613Z,86.67
2022-11-20T03:44:05.219Z,86.59
2022-11-20T03:47:32.006Z,86.75
2022-11-20T03:51:10.806Z,86.52
2022-11-20T03:54:37.487Z,86.56
2022-11-20T03:58:04.103Z,86.68
2022-11-20T04:01:33.621Z,86.74
2022-11-20T04:05:00.792Z,86.98
2022-11-20T04:08:27.729Z,87.23
2022-11-20T04:11:54.636Z,87.17
2022-11-20T04:15:21.279Z,87.31
2022-11-20T04:18:48.197Z,87.22
2022-11-20T04:22:15.176Z,87.44
2022-11-20T04:25:42.157Z,87.48
2022-11-20T04:29:12.180Z,87.39
2022-11-20T04:32:38.844Z,87.37
2022-11-20T04:36:08.067Z,87.28
2022-11-20T04:39:34.856Z,87.34
2022-11-20T04:43:01.886Z,87.27
2022-11-20T04:46:30.156Z,87.23
2022-11-20T04:49:57.060Z,87.31
2022-11-20T04:53:25.148Z,87.27
2022-11-20T04:56:52.537Z,87.27
2022-11-20T05:00:20.701Z,87.13
2022-11-20T05:03:48.029Z,87.25
2022-11-20T05:19:52.949Z,86.50
2022-11-20T05:23:20.043Z,86.11
2022-11-20T05:26:47.140Z,86.22
2022-11-20T05:30:17.127Z,86.31
2022-11-20T05:33:45.931Z,86.38
2022-11-20T05:37:13.146Z,86.55
2022-11-20T05:40:40.557Z,86.48
2022-11-20T05:44:07.992Z,86.66
2022-11-20T05:47:36.859Z,86.60
2022-11-20T05:51:04.978Z,86.67
2022-11-20T05:54:32.343Z,86.63
2022-11-20T05:57:59.331Z,86.81
2022-11-20T06:01:27.917Z,87.01
2022-11-20T06:04:54.750Z,87.08
2022-11-20T06:08:22.032Z,87.11
2022-11-20T06:11:49.389Z,87.12
2022-11-20T06:15:16.737Z,87.38
2022-11-20T06:18:44.098Z,87.24
2022-11-20T06:22:11.334Z,87.14
2022-11-20T06:25:41.410Z,87.26
2022-11-20T06:29:08.453Z,87.23
2022-11-20T06:32:36.214Z,87.14
2022-11-20T06:36:10.177Z,87.24
2022-11-20T06:39:38.236Z,87.19
2022-11-20T06:43:04.951Z,87.11
2022-11-20T06:46:31.630Z,86.99
2022-11-20T06:49:58.674Z,86.63
2022-11-20T06:53:26.233Z,86.53
2022-11-20T06:56:53.176Z,86.38
2022-11-20T07:00:20.537Z,86.18
2022-11-20T07:03:54.167Z,86.32
2022-11-20T07:07:21.371Z,86.22
2022-11-20T07:10:48.537Z,86.10
2022-11-20T07:14:15.270Z,85.94
2022-11-20T07:17:42.275Z,85.81
2022-11-20T07:21:11.515Z,85.53
2022-11-20T07:24:40.762Z,85.30
2022-11-20T07:28:12.126Z,85.19
2022-11-20T07:31:38.796Z,85.00
2022-11-20T07:35:06.213Z,84.92
2022-11-20T07:38:33.394Z,84.75
2022-11-20T07:42:00.493Z,84.72
2022-11-20T07:45:28.029Z,84.38
2022-11-20T07:48:54.641Z,84.24
2022-11-20T07:52:21.878Z,84.43
2022-11-20T07:55:48.824Z,84.14
2022-11-20T07:59:16.598Z,84.23
2022-11-20T08:02:43.997Z,84.15
2022-11-20T08:06:11.517Z,83.76
2022-11-20T08:09:38.161Z,83.56
2022-11-20T08:13:23.284Z,83.39
2022-11-20T08:16:51.543Z,83.08
2022-11-20T08:20:18.265Z,82.93
2022-11-20T08:23:45.005Z,82.54
2022-11-20T08:27:12.051Z,82.36
2022-11-20T08:30:39.763Z,81.92
2022-11-20T08:34:09.431Z,82.27
2022-11-20T08:37:38.575Z,81.81
2022-11-20T08:41:24.731Z,82.01
2022-11-20T08:44:51.337Z,81.55
2022-11-20T08:48:18.205Z,81.83
2022-11-20T08:51:46.142Z,81.52
2022-11-20T08:55:14.574Z,81.19
2022-11-20T08:59:09.892Z,80.73
2022-11-20T09:02:28.696Z,80.50
2022-11-20T09:06:01.384Z,79.54
2022-11-20T09:09:28.131Z,79.98
2022-11-20T09:12:56.296Z,79.91
2022-11-20T09:16:23.196Z,79.36
2022-11-20T09:19:50.006Z,79.10
2022-11-20T09:23:17.010Z,78.83
2022-11-20T09:26:43.642Z,78.74
2022-11-20T09:30:12.673Z,78.31
2022-11-20T09:33:39.904Z,78.32
2022-11-20T09:37:07.883Z,78.23
2022-11-20T09:40:36.390Z,77.95
2022-11-20T09:44:10.192Z,78.39
2022-11-20T09:47:51.675Z,78.62
2022-11-20T09:51:30.336Z,77.24
2022-11-20T09:54:58.332Z,76.86
2022-11-20T09:58:33.309Z,75.38
2022-11-20T10:02:01.393Z,75.87
2022-11-20T10:05:32.224Z,75.34
2022-11-20T10:09:16.261Z,75.54
2022-11-20T10:12:59.419Z,75.71
2022-11-20T10:16:39.527Z,75.06
2022-11-20T10:20:23.229Z,74.64
2022-11-20T10:24:11.343Z,74.61
2022-11-20T10:28:08.989Z,74.43
2022-11-20T10:31:39.043Z,73.94
2022-11-20T10:35:16.203Z,73.98
2022-11-20T10:38:46.909Z,73.85
2022-11-20T10:42:18.336Z,72.89
2022-11-20T10:46:01.028Z,73.04
2022-11-20T10:49:27.704Z,72.58
2022-11-20T10:53:06.656Z,72.61
2022-11-20T10:56:42.382Z,72.13
2022-11-20T11:00:15.256Z,72.16
2022-11-20T11:03:44.440Z,73.32
2022-11-20T11:07:15.637Z,73.54
2022-11-20T11:10:48.283Z,73.73
2022-11-20T11:14:16.837Z,73.21
2022-11-20T11:17:49.761Z,72.72
2022-11-20T11:21:23.276Z,72.87
2022-11-20T11:24:56.417Z,72.77
2022-11-20T11:28:28.384Z,72.44
2022-11-20T11:32:04.581Z,72.95
2022-11-20T11:35:31.938Z,72.47
2022-11-20T11:38:59.213Z,72.64
2022-11-20T11:42:26.041Z,72.49
2022-11-20T11:45:58.027Z,73.20
2022-11-20T11:49:25.948Z,73.48
2022-11-20T11:53:00.466Z,73.55
2022-11-20T11:56:29.502Z,73.61
2022-11-20T12:00:06.908Z,73.83
2022-11-20T12:03:39.899Z,73.72
2022-11-20T12:07:44.220Z,73.72
2022-11-20T12:11:06.160Z,73.81
2022-11-20T12:14:38.848Z,73.77
2022-11-20T12:18:22.734Z,73.90
2022-11-20T12:22:01.978Z,74.33
2022-11-20T12:25:34.379Z,74.13
2022-11-20T12:29:13.908Z,74.34
2022-11-20T12:33:18.397Z,74.13
2022-11-20T12:36:52.104Z,74.20
2022-11-20T12:40:37.686Z,74.17
2022-11-20T12:44:35.753Z,74.15
2022-11-20T12:48:30.283Z,74.55
2022-11-20T12:52:09.726Z,74.69
2022-11-20T12:55:44.783Z,74.44
2022-11-20T12:59:25.571Z,74.53
2022-11-20T13:03:23.586Z,74.61
2022-11-20T13:06:51.290Z,74.46
2022-11-20T13:10:25.680Z,74.33
2022-11-20T13:14:08.698Z,74.27
2022-11-20T13:17:39.154Z,74.38
2022-11-20T13:21:17.512Z,74.24
2022-11-20T13:24:53.865Z,74.12
2022-11-20T13:28:32.437Z,74.05
2022-11-20T13:32:16.133Z,73.95
2022-11-20T13:35:45.376Z,74.41
2022-11-20T13:39:13.370Z,74.81
2022-11-20T13:42:45.595Z,74.98
2022-11-20T13:46:13.030Z,74.74
2022-11-20T13:49:45.358Z,74.61
2022-11-20T13:53:27.786Z,74.77
2022-11-20T13:57:06.917Z,74.40
2022-11-20T14:00:33.904Z,74.40
2022-11-20T14:04:08.580Z,74.55
2022-11-20T14:07:42.837Z,74.71
2022-11-20T14:11:17.959Z,74.73
2022-11-20T14:14:52.428Z,74.98
2022-11-20T14:18:23.963Z,74.97
2022-11-20T14:21:53.315Z,75.02
2022-11-20T14:25:28.017Z,74.93
2022-11-20T14:28:55.733Z,75.28
2022-11-20T14:32:26.097Z,75.52
2022-11-20T14:35:55.201Z,75.48
2022-11-20T14:39:32.893Z,75.50
2022-11-20T14:43:00.953Z,75.70
2022-11-20T14:46:29.805Z,75.74
2022-11-20T14:49:57.992Z,75.59
2022-11-20T14:53:27.621Z,75.65
2022-11-20T14:57:00.689Z,75.65
2022-11-20T15:00:28.903Z,75.64
2022-11-20T15:04:03.704Z,75.66
2022-11-20T15:07:32.206Z,75.99
2022-11-20T15:10:59.377Z,75.66
2022-11-20T15:14:27.636Z,75.79
2022-11-20T15:17:55.076Z,76.14
2022-11-20T15:21:23.200Z,75.99
2022-11-20T15:24:49.852Z,76.32
2022-11-20T15:28:22.916Z,76.06
2022-11-20T15:31:51.939Z,76.38
2022-11-20T15:35:19.598Z,76.23
2022-11-20T15:38:46.381Z,76.42
2022-11-20T15:42:13.124Z,76.39
2022-11-20T15:45:43.448Z,76.57
2022-11-20T15:49:13.121Z,76.74
2022-11-20T15:52:42.252Z,76.76
2022-11-20T15:56:12.230Z,76.95
2022-11-20T15:59:40.884Z,76.98
2022-11-20T16:03:07.821Z,76.98
2022-11-20T16:06:34.844Z,77.01
2022-11-20T16:10:01.477Z,77.20
2022-11-20T16:13:45.824Z,77.43
2022-11-20T16:17:12.535Z,77.36
2022-11-20T16:20:39.602Z,77.44
2022-11-20T16:24:09.279Z,77.43
2022-11-20T16:27:36.403Z,77.48
2022-11-20T16:31:11.984Z,77.59
2022-11-20T16:34:38.638Z,77.70
2022-11-20T16:38:05.480Z,77.76
2022-11-20T16:41:34.761Z,77.45
2022-11-20T16:45:01.470Z,77.49
2022-11-20T16:48:28.305Z,77.74
2022-11-20T16:51:55.036Z,77.68
2022-11-20T16:55:21.982Z,77.57
2022-11-20T16:58:51.021Z,77.59
2022-11-20T17:02:18.364Z,77.60
2022-11-20T17:05:45.249Z,77.70
2022-11-20T17:09:13.002Z,77.77
2022-11-20T17:12:39.679Z,77.87
2022-11-20T17:16:08.533Z,77.88
2022-11-20T17:19:35.599Z,77.85
2022-11-20T17:23:02.306Z,77.82
2022-11-20T17:26:29.335Z,77.91
2022-11-20T17:29:57.722Z,77.77
2022-11-20T17:33:24.740Z,77.67
2022-11-20T17:36:51.441Z,77.89
2022-11-20T17:40:20.921Z,77.85
2022-11-20T17:43:54.147Z,77.92
2022-11-20T17:47:21.122Z,78.14
2022-11-20T17:50:48.211Z,78.11
2022-11-20T17:54:15.156Z,78.12
2022-11-20T17:57:56.475Z,78.19
2022-11-20T18:01:23.828Z,78.28
2022-11-20T18:04:51.164Z,78.32
2022-11-20T18:08:18.356Z,78.29
2022-11-20T18:11:45.721Z,78.37
2022-11-20T18:15:12.819Z,78.37
2022-11-20T18:18:39.524Z,78.47
2022-11-20T18:22:07.908Z,78.47
2022-11-20T18:25:34.707Z,78.54
2022-11-20T18:29:07.117Z,78.47
2022-11-20T18:32:35.476Z,78.58
2022-11-20T18:36:12.053Z,78.78
2022-11-20T18:39:38.774Z,78.72
2022-11-20T18:43:24.074Z,78.84
2022-11-20T18:46:51.374Z,78.93
2022-11-20T18:50:19.192Z,79.02
2022-11-20T18:53:47.516Z,78.81
2022-11-20T18:57:15.681Z,79.05
2022-11-20T19:00:42.645Z,79.02
2022-11-20T19:04:12.366Z,79.10
2022-11-20T19:07:39.073Z,79.15
2022-11-20T19:11:10.522Z,79.09
2022-11-20T19:14:37.767Z,79.18
2022-11-20T19:18:04.433Z,79.05
2022-11-20T19:21:32.432Z,79.24
2022-11-20T19:24:59.281Z,79.26
2022-11-20T19:28:26.543Z,79.53
2022-11-20T19:31:53.476Z,79.43
2022-11-20T19:35:20.920Z,79.61
2022-11-20T19:38:50.729Z,79.50
2022-11-20T19:42:15.997Z,79.55
2022-11-20T19:45:42.760Z,79.65
2022-11-20T19:49:12.097Z,79.83
2022-11-20T19:52:37.498Z,79.80
2022-11-20T19:56:04.282Z,80.08
2022-11-20T19:59:31.322Z,80.02
2022-11-20T20:02:58.032Z,80.11
2022-11-20T20:06:26.846Z,80.19
2022-11-20T20:09:53.820Z,80.22
2022-11-20T20:13:20.474Z,80.30
2022-11-20T20:25:58.114Z,79.73
2022-11-20T20:29:25.666Z,79.47
2022-11-20T20:32:56.242Z,79.27
2022-11-20T20:36:25.267Z,79.12
2022-11-20T20:39:52.009Z,79.12
2022-11-20T20:43:18.949Z,79.14
2022-11-20T20:46:45.680Z,79.25
2022-11-20T20:50:14.190Z,79.45
2022-11-20T20:53:41.151Z,79.39
2022-11-20T20:57:07.947Z,79.63
2022-11-20T21:00:34.868Z,79.44
2022-11-20T21:04:01.681Z,79.63
2022-11-20T21:07:28.739Z,79.54
2022-11-20T21:10:57.505Z,79.87
2022-11-20T21:14:24.572Z,80.12
2022-11-20T21:17:51.801Z,80.15
2022-11-20T21:21:37.209Z,80.50
2022-11-20T21:25:04.301Z,80.63
2022-11-20T21:28:32.238Z,80.80
2022-11-20T21:31:59.798Z,80.91
2022-11-20T21:35:26.498Z,81.04
2022-11-20T21:38:55.111Z,81.17
2022-11-20T21:42:22.260Z,81.28
2022-11-20T21:45:48.890Z,81.22
2022-11-20T21:49:17.766Z,80.94
2022-11-20T21:52:44.454Z,80.96
2022-11-20T21:56:16.380Z,80.96
2022-11-20T21:59:45.698Z,80.84
2022-11-20T22:03:12.739Z,80.77
2022-11-20T22:06:39.593Z,80.74
2022-11-20T22:10:08.212Z,80.87
2022-11-20T22:13:52.963Z,80.76
2022-11-20T22:17:40.848Z,80.85
2022-11-20T22:21:08.870Z,80.91
2022-11-20T22:24:36.006Z,80.76
2022-11-20T22:28:03.390Z,80.86
2022-11-20T22:31:31.593Z,80.70
2022-11-20T22:34:58.725Z,81.02
2022-11-20T22:38:29.647Z,81.25
2022-11-20T22:41:56.676Z,81.33
2022-11-20T22:45:23.854Z,81.29
2022-11-20T22:48:54.690Z,81.67
2022-11-20T22:52:22.281Z,81.70
2022-11-20T22:55:53.219Z,81.79
2022-11-20T22:59:20.305Z,81.82
2022-11-20T23:02:48.137Z,81.86
2022-11-20T23:06:16.215Z,81.80
2022-11-20T23:09:43.200Z,81.72
2022-11-20T23:13:09.909Z,81.71
2022-11-20T23:16:37.148Z,81.76
2022-11-20T23:20:03.947Z,81.86
2022-11-20T23:23:31.341Z,82.02
2022-11-20T23:26:58.509Z,82.44
2022-11-20T23:30:25.711Z,82.65
2022-11-20T23:33:53.296Z,82.57
2022-11-20T23:37:20.140Z,82.51
2022-11-20T23:40:50.885Z,82.65
2022-11-20T23:44:17.553Z,82.83
2022-11-20T23:47:44.340Z,83.08
2022-11-20T23:51:10.974Z,83.07
2022-11-20T23:54:37.624Z,83.20
2022-11-20T23:58:05.539Z,83.40
